Time;durP1;ratioP1;P1;durP2;ratioP2;P2;SDS_P1;SDS_P2;PMS_P1;PMS_P2;Temp;Humidity;BMP_temperature;BMP_pressure;BME280_temperature;BME280_humidity;BME280_pressure;Samples;Min_cycle;Max_cycle;Signal;HPM_P1;HPM_P2
2021/05/25 00:00:21;;;;;;;14.90;7.00;;;17.40;58.60;;;;;;5033309;28;20484;-65
2021/05/25 00:02:47;;;;;;;12.65;6.03;;;17.30;58.50;;;;;;5034379;28;20112;-65
2021/05/25 00:05:19;;;;;;;3.30;1.70;;;17.20;58.60;;;;;;5017210;28;20026;-65
2021/05/25 00:07:44;;;;;;;2.67;1.70;;;17.20;58.80;;;;;;5034392;28;20029;-65
2021/05/25 00:10:11;;;;;;;3.45;1.80;;;17.20;58.80;;;;;;5046457;28;20076;-65
2021/05/25 00:12:37;;;;;;;4.35;2.55;;;17.20;58.80;;;;;;5026389;28;20035;-65
2021/05/25 00:15:08;;;;;;;7.13;3.88;;;17.10;58.80;;;;;;5035857;28;20036;-65
2021/05/25 00:17:33;;;;;;;5.70;1.48;;;17.10;58.80;;;;;;5037154;28;20088;-65
2021/05/25 00:20:00;;;;;;;3.67;2.60;;;17.10;58.70;;;;;;5034275;28;20033;-66
2021/05/25 00:22:26;;;;;;;3.13;1.65;;;17.10;58.60;;;;;;5034700;28;20030;-65
2021/05/25 00:24:52;;;;;;;2.28;1.63;;;17.10;58.60;;;;;;5033587;28;20040;-65
2021/05/25 00:27:17;;;;;;;1.85;1.05;;;17.10;58.70;;;;;;5032038;28;20029;-65
2021/05/25 00:29:43;;;;;;;2.63;0.80;;;17.10;58.90;;;;;;5033405;28;20076;-65
2021/05/25 00:32:09;;;;;;;1.05;0.90;;;17.10;58.80;;;;;;5035645;28;20120;-65
2021/05/25 00:34:35;;;;;;;2.00;1.08;;;17.10;58.90;;;;;;5032468;28;20446;-65
2021/05/25 00:37:01;;;;;;;2.75;1.10;;;17.10;58.80;;;;;;5030852;28;20100;-65
2021/05/25 00:39:27;;;;;;;2.78;1.23;;;17.10;58.80;;;;;;5031971;28;20065;-65
2021/05/25 00:41:53;;;;;;;1.70;1.13;;;17.10;58.80;;;;;;5030948;28;20123;-65
2021/05/25 00:44:18;;;;;;;1.42;1.00;;;17.10;58.80;;;;;;5032242;28;20021;-66
2021/05/25 00:46:44;;;;;;;2.30;0.80;;;17.10;58.70;;;;;;5032360;28;20033;-65
2021/05/25 00:49:10;;;;;;;2.38;1.20;;;17.10;58.80;;;;;;5030203;28;20037;-65
2021/05/25 00:51:38;;;;;;;4.97;2.22;;;17.10;58.90;;;;;;5031916;28;20029;-65
2021/05/25 00:54:04;;;;;;;3.17;1.75;;;17.10;58.90;;;;;;5032109;28;20022;-65
2021/05/25 00:56:32;;;;;;;2.63;1.70;;;17.10;58.90;;;;;;5031983;28;20029;-65
2021/05/25 00:58:58;;;;;;;4.03;1.45;;;17.10;58.90;;;;;;5031990;28;20021;-66
2021/05/25 01:01:24;;;;;;;3.78;1.20;;;17.10;58.90;;;;;;5031497;28;20379;-65
2021/05/25 01:03:50;;;;;;;2.20;1.20;;;17.10;58.70;;;;;;5030634;28;20026;-65
2021/05/25 01:06:16;;;;;;;1.63;1.13;;;17.10;58.80;;;;;;5031915;28;20489;-65
2021/05/25 01:08:42;;;;;;;2.40;1.17;;;17.00;58.80;;;;;;5031769;28;20056;-65
2021/05/25 01:11:10;;;;;;;1.42;1.15;;;17.00;59.00;;;;;;5031825;28;20033;-65
2021/05/25 01:13:57;;;;;;;3.13;1.42;;;17.10;59.00;;;;;;5030658;28;20022;-65
2021/05/25 01:16:26;;;;;;;3.33;1.45;;;17.00;59.10;;;;;;5030637;28;20029;-65
2021/05/25 01:18:54;;;;;;;2.13;1.45;;;17.00;59.00;;;;;;5031512;28;20502;-65
2021/05/25 01:21:21;;;;;;;2.60;1.58;;;17.00;59.30;;;;;;5031554;28;20422;-65
2021/05/25 01:23:48;;;;;;;1.65;1.30;;;17.00;59.40;;;;;;5031480;28;20021;-65
2021/05/25 01:26:16;;;;;;;1.70;1.40;;;17.00;59.40;;;;;;5030894;28;20556;-65
2021/05/25 01:28:43;;;;;;;2.30;1.20;;;16.90;59.30;;;;;;5031336;28;20171;-65
2021/05/25 01:31:09;;;;;;;4.97;1.67;;;16.90;59.20;;;;;;5031452;28;20034;-65
2021/05/25 01:33:37;;;;;;;1.75;1.13;;;17.00;59.30;;;;;;5031360;28;20386;-65
2021/05/25 01:36:07;;;;;;;1.52;1.30;;;16.90;59.30;;;;;;5029765;28;20021;-65
2021/05/25 01:38:35;;;;;;;2.97;1.45;;;16.90;59.30;;;;;;5031344;28;20364;-65
2021/05/25 01:41:02;;;;;;;1.95;1.65;;;16.90;59.50;;;;;;5031073;28;20017;-65
2021/05/25 01:43:28;;;;;;;2.97;1.40;;;16.90;59.30;;;;;;5031140;28;20021;-65
2021/05/25 01:45:54;;;;;;;2.97;1.38;;;16.90;59.30;;;;;;5031094;28;20029;-65
2021/05/25 01:48:20;;;;;;;2.70;1.30;;;16.90;59.20;;;;;;5030274;28;20029;-65
2021/05/25 01:50:45;;;;;;;1.85;1.40;;;16.90;59.30;;;;;;5031350;28;20024;-65
2021/05/25 01:53:18;;;;;;;1.40;1.27;;;16.90;59.20;;;;;;5032290;28;20125;-65
2021/05/25 01:55:51;;;;;;;3.05;1.40;;;16.90;59.30;;;;;;5032476;28;20017;-66
2021/05/25 01:58:26;;;;;;;1.50;1.08;;;16.90;59.40;;;;;;5030820;28;20022;-65
2021/05/25 02:00:57;;;;;;;1.55;1.15;;;16.80;59.50;;;;;;5032451;28;20023;-65
2021/05/25 02:03:23;;;;;;;1.63;1.10;;;16.90;59.40;;;;;;5032484;28;20022;-65
2021/05/25 02:05:49;;;;;;;1.85;1.17;;;16.80;59.40;;;;;;5032409;28;20542;-65
2021/05/25 02:08:17;;;;;;;1.65;1.13;;;16.80;59.40;;;;;;5032295;28;20025;-65
2021/05/25 02:10:57;;;;;;;3.55;1.70;;;16.90;59.50;;;;;;5032274;28;20067;-65
2021/05/25 02:13:27;;;;;;;1.75;1.23;;;16.90;59.70;;;;;;5031479;28;20033;-65
2021/05/25 02:15:56;;;;;;;3.40;1.95;;;16.90;59.70;;;;;;5032221;28;20101;-65
2021/05/25 02:18:27;;;;;;;2.22;1.55;;;16.90;59.80;;;;;;5032166;28;20498;-65
2021/05/25 02:20:58;;;;;;;1.90;1.48;;;16.90;59.90;;;;;;5028443;28;20021;-66
2021/05/25 02:23:24;;;;;;;5.30;1.40;;;16.90;59.80;;;;;;5012495;28;20387;-65
2021/05/25 02:25:51;;;;;;;2.25;1.65;;;16.90;59.90;;;;;;5012133;28;20022;-65
2021/05/25 02:28:18;;;;;;;3.45;1.88;;;16.90;60.00;;;;;;5012282;28;20085;-65
2021/05/25 02:30:45;;;;;;;2.78;1.80;;;16.90;60.10;;;;;;5012403;28;20783;-65
2021/05/25 02:33:16;;;;;;;2.28;1.48;;;16.90;60.00;;;;;;5014734;28;20094;-65
2021/05/25 02:35:43;;;;;;;2.97;1.88;;;16.80;60.10;;;;;;5048114;28;20413;-66
2021/05/25 02:38:11;;;;;;;2.40;1.98;;;16.90;60.50;;;;;;5050509;28;20017;-65
2021/05/25 02:40:37;;;;;;;4.63;2.40;;;16.90;60.50;;;;;;5052035;28;20021;-65
2021/05/25 02:43:04;;;;;;;3.28;1.88;;;16.90;60.90;;;;;;5052260;28;20036;-65
2021/05/25 02:45:31;;;;;;;5.45;2.72;;;16.80;60.70;;;;;;5037272;28;20026;-65
2021/05/25 02:47:57;;;;;;;7.40;3.20;;;16.90;60.90;;;;;;5012988;28;20026;-65
2021/05/25 02:50:23;;;;;;;5.18;2.88;;;16.90;60.90;;;;;;5012952;28;20030;-65
2021/05/25 02:52:51;;;;;;;4.18;2.58;;;16.90;60.70;;;;;;5029177;28;20466;-65
2021/05/25 02:55:19;;;;;;;10.88;5.78;;;16.90;60.70;;;;;;5032641;28;20022;-65
2021/05/25 02:57:45;;;;;;;2.75;1.88;;;16.90;60.50;;;;;;5032654;28;20049;-65
2021/05/25 03:00:21;;;;;;;3.05;1.50;;;16.80;60.30;;;;;;5032268;28;20033;-65
2021/05/25 03:02:47;;;;;;;3.22;1.77;;;16.90;60.50;;;;;;5032672;28;20026;-66
2021/05/25 03:05:15;;;;;;;3.13;1.95;;;16.90;60.50;;;;;;5032518;28;20064;-65
2021/05/25 03:07:42;;;;;;;7.28;3.22;;;16.80;60.40;;;;;;5032564;28;20116;-65
2021/05/25 03:10:13;;;;;;;5.47;2.75;;;16.80;60.40;;;;;;5032412;28;20036;-65
2021/05/25 03:12:39;;;;;;;1.98;1.25;;;16.80;60.40;;;;;;5032403;28;20036;-65
2021/05/25 03:15:07;;;;;;;1.88;0.90;;;16.80;60.90;;;;;;5032065;28;20021;-65
2021/05/25 03:17:33;;;;;;;5.72;1.98;;;16.70;61.10;;;;;;5031402;28;20018;-65
2021/05/25 03:20:00;;;;;;;3.70;1.40;;;16.70;61.20;;;;;;5032305;28;20021;-66
2021/05/25 03:22:27;;;;;;;1.00;0.60;;;16.60;61.60;;;;;;5032204;28;20021;-66
2021/05/25 03:24:53;;;;;;;0.85;0.70;;;16.50;60.80;;;;;;5033438;28;20412;-66
2021/05/25 03:27:19;;;;;;;2.35;0.90;;;16.30;60.90;;;;;;5034588;28;20163;-66
2021/05/25 03:29:45;;;;;;;1.80;0.60;;;16.20;61.20;;;;;;5035776;28;20105;-66
2021/05/25 03:32:11;;;;;;;1.45;0.77;;;16.10;61.00;;;;;;5035623;28;20497;-66
2021/05/25 03:34:36;;;;;;;2.25;0.50;;;16.00;60.80;;;;;;5035547;28;20025;-66
2021/05/25 03:37:02;;;;;;;1.85;0.60;;;15.90;61.00;;;;;;5035700;28;20356;-66
2021/05/25 03:39:28;;;;;;;1.88;0.80;;;15.80;60.50;;;;;;5035575;28;20044;-66
2021/05/25 03:41:54;;;;;;;1.52;0.93;;;15.60;60.20;;;;;;5035614;28;20033;-67
2021/05/25 03:44:21;;;;;;;0.73;0.60;;;15.50;60.30;;;;;;5026182;28;20376;-67
2021/05/25 03:46:46;;;;;;;2.45;0.70;;;15.40;60.70;;;;;;5016055;28;20109;-67
2021/05/25 03:49:13;;;;;;;0.73;0.60;;;15.40;61.00;;;;;;5015706;28;20101;-68
2021/05/25 03:51:39;;;;;;;2.38;0.73;;;15.30;60.70;;;;;;5015377;28;20026;-68
2021/05/25 03:54:13;;;;;;;3.10;0.70;;;15.20;60.70;;;;;;5015787;28;20022;-68
2021/05/25 03:56:58;;;;;;;;;;;15.10;61.00;;;;;;5016428;28;20057;-68
2021/05/25 03:59:23;;;;;;;0.52;0.40;;;15.10;60.60;;;;;;5030682;28;20336;-69
2021/05/25 04:01:50;;;;;;;1.98;0.73;;;15.10;61.20;;;;;;5015550;28;20130;-69
2021/05/25 04:04:16;;;;;;;1.17;0.57;;;15.10;61.70;;;;;;5015470;28;20021;-70
2021/05/25 04:06:42;;;;;;;1.10;0.60;;;15.10;62.10;;;;;;5030664;28;20489;-69
2021/05/25 04:09:08;;;;;;;1.95;0.80;;;15.10;62.20;;;;;;5015418;28;20387;-70
2021/05/25 04:11:35;;;;;;;1.58;0.90;;;15.10;62.30;;;;;;5013953;28;20109;-70
2021/05/25 04:14:03;;;;;;;6.43;1.20;;;15.10;62.40;;;;;;5014084;28;20037;-70
2021/05/25 04:16:30;;;;;;;2.72;0.50;;;15.20;62.40;;;;;;5015199;28;20420;-71
2021/05/25 04:18:56;;;;;;;0.93;0.60;;;15.20;62.30;;;;;;5015347;28;20109;-71
2021/05/25 04:21:21;;;;;;;1.27;0.80;;;15.20;62.20;;;;;;5030451;28;20104;-71
2021/05/25 04:23:47;;;;;;;0.77;0.40;;;15.20;62.30;;;;;;5015221;28;20471;-71
2021/05/25 04:26:13;;;;;;;1.45;0.47;;;15.30;62.10;;;;;;5013766;28;20033;-71
2021/05/25 04:28:40;;;;;;;3.65;1.00;;;15.30;61.90;;;;;;5015120;28;20056;-72
2021/05/25 04:31:06;;;;;;;2.15;0.80;;;15.40;62.20;;;;;;5030085;28;20061;-72
2021/05/25 04:33:32;;;;;;;5.05;0.90;;;15.40;62.30;;;;;;5014957;28;20471;-72
2021/05/25 04:35:58;;;;;;;5.70;1.50;;;15.40;61.70;;;;;;5046303;28;20062;-72
2021/05/25 04:38:24;;;;;;;8.82;4.40;;;15.40;61.40;;;;;;5053448;28;20028;-72
2021/05/25 04:40:49;;;;;;;1.98;1.30;;;15.40;61.10;;;;;;5053903;28;20025;-72
2021/05/25 04:43:15;;;;;;;5.45;2.10;;;15.40;61.20;;;;;;5029753;28;20022;-72
2021/05/25 04:45:43;;;;;;;2.10;1.13;;;15.40;61.80;;;;;;5014730;28;20079;-72
2021/05/25 04:48:10;;;;;;;5.38;1.48;;;15.50;62.20;;;;;;5015029;28;20037;-71
2021/05/25 04:50:37;;;;;;;2.95;0.90;;;15.60;62.40;;;;;;5023259;28;20061;-72
2021/05/25 04:53:03;;;;;;;1.10;0.70;;;15.60;62.00;;;;;;5034183;28;20124;-71
2021/05/25 04:55:29;;;;;;;3.58;1.45;;;15.70;61.80;;;;;;5033033;28;20041;-71
2021/05/25 04:57:55;;;;;;;2.55;1.40;;;15.70;61.70;;;;;;5033071;28;20137;-71
2021/05/25 05:00:24;;;;;;;2.97;1.05;;;15.80;61.90;;;;;;5034223;28;20057;-71
2021/05/25 05:02:51;;;;;;;8.57;4.63;;;15.80;61.10;;;;;;5034125;28;20479;-71
2021/05/25 05:05:17;;;;;;;12.05;6.07;;;15.80;61.00;;;;;;5034001;28;20033;-71
2021/05/25 05:07:43;;;;;;;3.13;1.70;;;15.80;61.30;;;;;;5034017;28;20025;-71
2021/05/25 05:10:10;;;;;;;3.35;1.20;;;15.90;60.90;;;;;;5033975;28;20478;-71
2021/05/25 05:12:35;;;;;;;6.18;2.35;;;15.80;60.40;;;;;;5033943;28;20387;-71
2021/05/25 05:15:04;;;;;;;6.32;3.38;;;15.80;60.30;;;;;;5033966;28;20022;-71
2021/05/25 05:17:30;;;;;;;2.15;0.88;;;15.80;60.00;;;;;;5033833;28;20017;-71
2021/05/25 05:19:56;;;;;;;2.05;1.15;;;15.80;60.20;;;;;;5014729;28;20148;-71
2021/05/25 05:22:22;;;;;;;3.83;1.98;;;15.80;60.20;;;;;;5029275;28;20432;-71
2021/05/25 05:24:48;;;;;;;3.88;1.90;;;15.80;60.40;;;;;;5013912;28;20100;-70
2021/05/25 05:27:14;;;;;;;4.40;2.08;;;15.90;60.40;;;;;;5014098;28;20435;-70
2021/05/25 05:29:40;;;;;;;8.85;2.53;;;15.90;60.50;;;;;;5014028;28;20131;-71
2021/05/25 05:32:06;;;;;;;1.88;1.10;;;15.90;60.40;;;;;;5012283;28;20034;-71
2021/05/25 05:34:33;;;;;;;1.60;0.60;;;15.90;60.40;;;;;;5012303;28;20487;-70
2021/05/25 05:36:59;;;;;;;1.30;0.60;;;16.00;60.60;;;;;;5012310;28;20049;-71
2021/05/25 05:39:25;;;;;;;1.85;0.57;;;16.00;59.90;;;;;;5013321;28;20071;-71
2021/05/25 05:41:51;;;;;;;5.47;0.60;;;16.10;60.20;;;;;;5013077;28;20125;-71
2021/05/25 05:44:16;;;;;;;3.25;0.70;;;16.10;60.00;;;;;;5013663;28;20025;-71
2021/05/25 05:46:42;;;;;;;1.25;0.80;;;16.10;59.30;;;;;;5013521;28;20029;-71
2021/05/25 05:49:08;;;;;;;2.35;0.80;;;16.10;59.00;;;;;;5010882;28;20030;-70
2021/05/25 05:51:38;;;;;;;2.13;0.98;;;16.10;59.00;;;;;;5013054;28;20022;-70
2021/05/25 05:54:04;;;;;;;2.83;1.15;;;16.20;59.00;;;;;;5013510;28;20498;-71
2021/05/25 05:56:29;;;;;;;1.52;0.85;;;16.10;58.20;;;;;;5013330;28;20177;-72
2021/05/25 05:58:55;;;;;;;3.65;0.50;;;16.10;58.30;;;;;;5012074;28;20113;-71
2021/05/25 06:01:21;;;;;;;3.00;0.80;;;16.10;58.20;;;;;;5028154;28;20026;-70
2021/05/25 06:03:47;;;;;;;4.10;1.15;;;16.10;58.20;;;;;;5013073;28;20084;-70
2021/05/25 06:06:14;;;;;;;3.60;1.33;;;16.10;58.30;;;;;;5013300;28;20422;-70
2021/05/25 06:08:40;;;;;;;3.00;0.95;;;16.20;58.20;;;;;;5013034;28;20487;-69
2021/05/25 06:11:07;;;;;;;2.15;0.63;;;16.20;57.90;;;;;;5013268;28;20034;-69
2021/05/25 06:13:33;;;;;;;1.95;0.80;;;16.20;57.10;;;;;;5013095;28;20101;-69
2021/05/25 06:16:02;;;;;;;3.45;1.85;;;16.20;57.30;;;;;;5028019;28;20022;-69
2021/05/25 06:18:33;;;;;;;4.25;0.93;;;16.20;57.80;;;;;;5017687;28;20025;-68
2021/05/25 06:21:01;;;;;;;2.35;0.80;;;16.20;57.10;;;;;;5032482;28;20029;-67
2021/05/25 06:23:27;;;;;;;2.35;0.90;;;16.30;56.90;;;;;;5032693;28;20026;-66
2021/05/25 06:25:53;;;;;;;5.32;0.90;;;16.30;56.90;;;;;;5032569;28;20493;-66
2021/05/25 06:28:19;;;;;;;3.20;0.95;;;16.30;57.00;;;;;;5032670;28;20021;-65
2021/05/25 06:30:45;;;;;;;4.90;0.77;;;16.40;56.80;;;;;;5032627;28;20033;-65
2021/05/25 06:33:11;;;;;;;1.15;0.70;;;16.40;56.00;;;;;;5029262;28;20399;-65
2021/05/25 06:35:37;;;;;;;1.70;0.68;;;16.40;56.30;;;;;;5021276;28;20026;-65
2021/05/25 06:38:03;;;;;;;4.80;1.60;;;16.50;56.10;;;;;;5030475;28;20021;-65
2021/05/25 06:40:29;;;;;;;1.85;0.80;;;16.60;56.70;;;;;;5018339;28;20018;-65
2021/05/25 06:42:55;;;;;;;2.85;0.70;;;16.70;56.30;;;;;;5011228;28;20054;-65
2021/05/25 06:45:21;;;;;;;4.20;1.73;;;16.80;54.80;;;;;;5012448;28;20030;-65
2021/05/25 06:47:47;;;;;;;3.08;1.00;;;16.80;55.20;;;;;;5012744;28;20025;-65
2021/05/25 06:50:14;;;;;;;3.90;1.23;;;16.90;55.50;;;;;;5012584;28;20026;-65
2021/05/25 06:52:42;;;;;;;4.35;0.93;;;17.00;54.00;;;;;;5012392;28;20047;-65
2021/05/25 06:55:08;;;;;;;4.80;1.45;;;17.00;54.50;;;;;;5012588;28;20041;-65
2021/05/25 06:57:34;;;;;;;5.15;0.95;;;17.10;54.20;;;;;;5012710;28;20052;-65
2021/05/25 07:00:00;;;;;;;2.65;0.70;;;17.20;54.30;;;;;;5014241;28;20022;-65
2021/05/25 07:02:26;;;;;;;1.35;0.65;;;17.30;54.20;;;;;;5016546;28;20018;-65
2021/05/25 07:04:53;;;;;;;2.70;1.60;;;17.40;53.90;;;;;;5016491;28;20419;-65
2021/05/25 07:07:20;;;;;;;3.80;1.10;;;17.50;53.90;;;;;;5016217;28;20029;-65
2021/05/25 07:09:45;;;;;;;2.55;1.10;;;17.60;53.60;;;;;;5016335;28;20080;-65
2021/05/25 07:12:12;;;;;;;4.93;1.67;;;17.70;52.90;;;;;;5016298;28;20026;-65
2021/05/25 07:14:39;;;;;;;3.17;1.02;;;17.70;52.20;;;;;;5016230;28;20105;-65
2021/05/25 07:17:05;;;;;;;2.17;0.80;;;17.80;51.30;;;;;;5016233;28;20061;-65
2021/05/25 07:19:31;;;;;;;9.05;1.40;;;17.80;50.90;;;;;;5015990;28;20391;-65
2021/05/25 07:21:57;;;;;;;3.65;1.05;;;17.80;50.80;;;;;;5016133;28;20022;-64
2021/05/25 07:24:22;;;;;;;3.78;1.23;;;17.80;50.40;;;;;;5016028;28;20046;-65
2021/05/25 07:26:48;;;;;;;3.67;0.70;;;17.80;50.60;;;;;;5015806;28;20476;-65
2021/05/25 07:29:14;;;;;;;2.10;0.73;;;17.80;50.70;;;;;;5024735;28;20029;-65
2021/05/25 07:31:40;;;;;;;3.00;0.77;;;17.80;50.20;;;;;;5035386;28;20030;-65
2021/05/25 07:34:06;;;;;;;3.35;0.93;;;17.80;49.70;;;;;;5019995;28;20107;-65
2021/05/25 07:36:31;;;;;;;4.93;1.45;;;17.80;49.40;;;;;;5029201;28;20022;-65
2021/05/25 07:38:57;;;;;;;4.07;1.08;;;17.80;47.30;;;;;;5020210;28;20030;-65
2021/05/25 07:41:23;;;;;;;1.48;0.70;;;17.70;46.90;;;;;;5035685;28;20021;-65
2021/05/25 07:43:49;;;;;;;0.73;0.50;;;17.70;46.60;;;;;;5026751;28;20059;-65
2021/05/25 07:46:17;;;;;;;3.35;0.93;;;17.70;45.50;;;;;;5015290;28;20030;-65
2021/05/25 07:48:44;;;;;;;1.67;0.60;;;17.60;44.90;;;;;;5015553;28;20030;-65
2021/05/25 07:51:10;;;;;;;1.63;0.82;;;17.60;45.40;;;;;;5013352;28;20586;-65
2021/05/25 07:53:36;;;;;;;3.28;0.65;;;17.60;44.70;;;;;;5013748;28;20104;-65
2021/05/25 07:56:02;;;;;;;4.70;1.63;;;17.50;44.50;;;;;;5023216;28;20116;-65
2021/05/25 07:58:27;;;;;;;4.75;0.90;;;17.60;44.80;;;;;;5015488;28;20064;-64
2021/05/25 08:00:53;;;;;;;2.38;0.82;;;17.60;44.40;;;;;;5013346;28;20062;-68
2021/05/25 08:03:20;;;;;;;3.28;0.82;;;17.70;44.30;;;;;;5014199;28;20033;-65
2021/05/25 08:05:45;;;;;;;2.75;0.68;;;17.70;43.40;;;;;;5014310;28;20424;-65
2021/05/25 08:08:11;;;;;;;1.90;0.60;;;17.70;43.40;;;;;;5018203;28;20097;-66
2021/05/25 08:10:37;;;;;;;2.08;0.57;;;17.80;43.70;;;;;;5032400;28;20025;-66
2021/05/25 08:13:04;;;;;;;1.52;0.45;;;17.80;42.90;;;;;;5029810;28;20052;-66
2021/05/25 08:15:31;;;;;;;1.90;0.68;;;17.90;42.60;;;;;;5033864;28;20026;-65
2021/05/25 08:20:29;;;;;;;1.90;0.60;;;18.00;42.60;;;;;;5035032;28;20104;-66
2021/05/25 08:22:56;;;;;;;2.40;0.70;;;18.00;42.20;;;;;;5034760;28;20056;-66
2021/05/25 08:25:27;;;;;;;2.83;0.80;;;18.10;42.10;;;;;;5033975;28;20036;-66
2021/05/25 08:27:54;;;;;;;2.97;0.68;;;18.10;42.30;;;;;;5033738;28;20464;-66
2021/05/25 08:30:25;;;;;;;5.20;0.75;;;18.10;41.80;;;;;;5034583;28;20038;-65
2021/05/25 08:32:53;;;;;;;2.65;0.60;;;18.10;41.70;;;;;;5034042;28;20120;-65
2021/05/25 08:35:20;;;;;;;3.67;1.30;;;18.10;41.70;;;;;;5032906;28;20018;-65
2021/05/25 08:37:52;;;;;;;2.28;0.80;;;18.10;41.50;;;;;;5021090;28;20029;-66
2021/05/25 08:40:18;;;;;;;7.22;0.95;;;18.10;41.50;;;;;;5013040;28;20388;-66
2021/05/25 08:42:46;;;;;;;2.17;0.70;;;18.10;42.10;;;;;;5013571;28;20032;-66
2021/05/25 08:45:13;;;;;;;2.03;0.88;;;18.10;41.70;;;;;;5014427;28;20037;-65
2021/05/25 08:47:40;;;;;;;3.70;0.80;;;18.10;41.50;;;;;;5014625;28;20022;-66
2021/05/25 08:50:09;;;;;;;2.08;0.73;;;18.10;40.70;;;;;;5014539;28;20026;-66
2021/05/25 08:52:36;;;;;;;1.92;0.52;;;18.20;40.70;;;;;;5014108;28;20125;-66
2021/05/25 08:55:03;;;;;;;2.20;0.80;;;18.20;40.50;;;;;;5014367;28;20022;-66
2021/05/25 08:57:29;;;;;;;4.18;0.90;;;18.20;40.90;;;;;;5014371;28;20490;-65
2021/05/25 08:59:55;;;;;;;3.63;0.80;;;18.30;41.30;;;;;;5014428;28;20022;-66
2021/05/25 09:02:21;;;;;;;2.17;0.88;;;18.40;40.90;;;;;;5014215;28;20034;-66
2021/05/25 09:05:18;;;;;;;4.13;0.85;;;18.50;40.00;;;;;;5014205;28;20029;-66
2021/05/25 09:07:54;;;;;;;4.78;0.68;;;18.70;41.80;;;;;;5054164;28;20039;-66
2021/05/25 09:10:41;;;;;;;3.85;1.00;;;18.90;39.90;;;;;;5076442;28;20051;-66
2021/05/25 09:13:18;;;;;;;4.38;0.93;;;19.00;39.80;;;;;;5091055;28;20082;-66
2021/05/25 09:15:55;;;;;;;4.35;0.95;;;19.20;39.00;;;;;;5071181;28;20023;-66
2021/05/25 09:18:27;;;;;;;3.33;0.70;;;19.20;38.60;;;;;;5069598;28;20041;-66
2021/05/25 09:20:53;;;;;;;4.47;0.90;;;19.20;39.10;;;;;;5060490;28;20128;-66
2021/05/25 09:23:23;;;;;;;3.30;1.02;;;19.20;38.50;;;;;;5070719;28;20559;-66
2021/05/25 09:25:59;;;;;;;3.80;0.50;;;19.20;38.60;;;;;;5070953;28;20064;-65
2021/05/25 09:28:25;;;;;;;2.83;0.73;;;19.10;39.10;;;;;;5070995;28;20107;-65
2021/05/25 09:30:51;;;;;;;2.80;0.93;;;19.10;39.50;;;;;;5070539;28;20700;-66
2021/05/25 09:33:20;;;;;;;3.35;1.10;;;19.10;39.60;;;;;;5070657;28;20048;-65
2021/05/25 09:35:48;;;;;;;2.45;0.80;;;19.00;39.30;;;;;;5062069;28;20052;-65
2021/05/25 09:38:24;;;;;;;5.55;0.73;;;19.00;39.70;;;;;;5050571;28;20529;-65
2021/05/25 09:40:51;;;;;;;2.97;0.90;;;19.00;39.80;;;;;;5078511;28;20043;-66
2021/05/25 09:43:27;;;;;;;2.15;0.88;;;19.10;40.10;;;;;;5060564;28;20034;-66
2021/05/25 09:45:53;;;;;;;2.22;0.52;;;19.10;39.70;;;;;;5016714;28;20030;-66
2021/05/25 09:48:19;;;;;;;2.40;0.77;;;19.20;40.00;;;;;;5016570;28;20028;-65
2021/05/25 09:50:45;;;;;;;6.40;1.35;;;19.30;40.10;;;;;;5032119;28;20025;-66
2021/05/25 09:53:13;;;;;;;5.82;1.13;;;19.40;39.40;;;;;;5013005;28;20127;-65
2021/05/25 09:55:58;;;;;;;5.43;1.42;;;19.40;39.20;;;;;;5012256;28;20102;-65
2021/05/25 09:58:34;;;;;;;5.03;1.00;;;19.50;39.50;;;;;;5013480;28;20026;-66
2021/05/25 10:01:01;;;;;;;2.40;0.80;;;19.60;38.80;;;;;;5013047;28;20022;-65
2021/05/25 10:03:27;;;;;;;2.22;0.80;;;19.60;38.70;;;;;;5013260;28;20022;-66
2021/05/25 10:05:54;;;;;;;2.15;0.55;;;19.70;38.60;;;;;;5013291;28;20423;-65
2021/05/25 10:08:23;;;;;;;4.72;1.15;;;19.80;38.60;;;;;;5013338;28;20030;-65
2021/05/25 10:10:51;;;;;;;7.22;1.20;;;19.90;38.50;;;;;;5013266;28;20479;-64
2021/05/25 10:13:18;;;;;;;3.25;0.80;;;20.10;38.50;;;;;;5013136;28;20061;-65
2021/05/25 10:15:48;;;;;;;9.43;1.30;;;20.30;38.50;;;;;;5013177;28;20021;-66
2021/05/25 10:18:35;;;;;;;1.35;0.57;;;20.40;36.40;;;;;;5013359;28;20046;-66
2021/05/25 10:21:05;;;;;;;1.50;0.50;;;20.50;36.80;;;;;;5013245;28;20037;-65
2021/05/25 10:23:33;;;;;;;3.88;1.10;;;20.60;36.90;;;;;;5013041;28;20026;-66
2021/05/25 10:26:04;;;;;;;4.22;1.02;;;20.70;36.10;;;;;;5013202;28;20022;-66
2021/05/25 10:28:30;;;;;;;2.65;0.80;;;20.80;35.80;;;;;;5013085;28;20044;-65
2021/05/25 10:30:57;;;;;;;4.05;0.80;;;20.80;34.70;;;;;;5013174;28;20427;-65
2021/05/25 10:33:25;;;;;;;2.83;0.85;;;20.90;34.60;;;;;;5012411;28;20079;-66
2021/05/25 10:36:06;;;;;;;3.88;1.13;;;20.90;34.10;;;;;;5015961;28;20088;-65
2021/05/25 10:38:34;;;;;;;2.60;0.68;;;20.80;34.20;;;;;;5016843;28;20018;-66
2021/05/25 10:41:05;;;;;;;3.35;0.88;;;20.80;34.40;;;;;;5016866;28;20030;-65
2021/05/25 10:43:45;;;;;;;2.05;0.63;;;20.80;34.80;;;;;;5016702;28;20074;-67
2021/05/25 10:46:14;;;;;;;3.28;0.80;;;20.90;34.00;;;;;;5016739;28;20376;-66
2021/05/25 10:49:15;;;;;;;3.70;0.70;;;21.00;33.80;;;;;;5016563;28;20030;-66
2021/05/25 10:51:53;;;;;;;1.55;0.57;;;21.00;34.20;;;;;;5015203;28;20038;-66
2021/05/25 10:54:21;;;;;;;2.90;0.73;;;21.20;33.90;;;;;;5016568;28;20451;-66
2021/05/25 10:56:47;;;;;;;4.15;0.73;;;21.20;32.30;;;;;;5016487;28;20490;-66
2021/05/25 10:59:15;;;;;;;1.45;0.70;;;21.20;32.20;;;;;;5015338;28;20026;-66
2021/05/25 11:01:42;;;;;;;2.53;0.60;;;21.20;32.00;;;;;;5016521;28;20022;-66
2021/05/25 11:04:09;;;;;;;3.55;1.40;;;21.20;32.50;;;;;;5016531;28;20101;-66
2021/05/25 11:06:36;;;;;;;2.28;0.60;;;21.30;31.60;;;;;;5016600;28;20018;-66
2021/05/25 11:09:21;;;;;;;2.42;0.80;;;21.30;32.50;;;;;;5016627;28;20032;-66
2021/05/25 11:12:06;;;;;;;2.78;1.00;;;21.40;32.30;;;;;;5016408;28;20026;-66
2021/05/25 11:14:32;;;;;;;11.60;1.00;;;21.50;31.50;;;;;;5016297;28;20048;-66
2021/05/25 11:17:30;;;;;;;1.80;0.52;;;21.50;30.20;;;;;;5016294;28;20033;-66
2021/05/25 11:20:11;;;;;;;1.50;0.55;;;21.50;31.20;;;;;;5032730;28;20029;-66
2021/05/25 11:22:38;;;;;;;1.50;0.52;;;21.60;31.20;;;;;;5036093;28;20028;-66
2021/05/25 11:25:07;;;;;;;1.90;0.73;;;21.60;29.90;;;;;;5035938;28;20068;-66
2021/05/25 11:27:44;;;;;;;1.73;0.75;;;21.60;30.70;;;;;;5036022;28;20027;-66
2021/05/25 11:30:30;;;;;;;3.08;0.95;;;21.40;30.20;;;;;;5019589;28;20041;-66
2021/05/25 11:32:57;;;;;;;2.00;0.90;;;21.20;30.30;;;;;;5015658;28;20030;-66
2021/05/25 11:35:25;;;;;;;3.13;0.82;;;21.10;30.90;;;;;;5015779;28;20028;-66
2021/05/25 11:37:58;;;;;;;5.97;0.70;;;20.90;30.80;;;;;;5014761;28;20534;-66
2021/05/25 11:40:27;;;;;;;3.10;0.52;;;20.80;31.40;;;;;;5015820;28;20026;-65
2021/05/25 11:42:55;;;;;;;2.13;0.68;;;20.60;32.30;;;;;;5015623;28;20036;-66
2021/05/25 11:45:24;;;;;;;4.22;0.82;;;20.50;32.50;;;;;;5021499;28;20033;-66
2021/05/25 11:47:53;;;;;;;2.25;0.88;;;20.40;33.40;;;;;;5022087;28;20026;-66
2021/05/25 11:50:19;;;;;;;2.35;0.60;;;20.40;33.80;;;;;;5014509;28;20109;-66
2021/05/25 11:52:51;;;;;;;4.53;1.42;;;20.30;34.10;;;;;;5015341;28;20137;-65
2021/05/25 11:55:17;;;;;;;2.88;0.73;;;20.30;34.50;;;;;;5014207;28;20096;-66
2021/05/25 11:57:49;;;;;;;2.80;0.75;;;20.20;34.10;;;;;;5014513;28;20496;-65
2021/05/25 12:00:21;;;;;;;3.42;0.80;;;20.20;34.40;;;;;;5015619;28;20022;-65
2021/05/25 12:02:50;;;;;;;5.03;0.77;;;20.10;34.50;;;;;;5015598;28;20022;-66
2021/05/25 12:05:21;;;;;;;1.15;0.68;;;20.10;34.40;;;;;;5015289;28;20073;-66
2021/05/25 12:07:55;;;;;;;2.17;0.80;;;20.10;34.40;;;;;;5015311;28;20030;-66
2021/05/25 12:10:26;;;;;;;5.88;0.88;;;20.10;34.70;;;;;;5015237;28;20034;-66
2021/05/25 12:12:53;;;;;;;2.63;1.30;;;20.00;34.70;;;;;;5015067;28;20026;-66
2021/05/25 12:15:25;;;;;;;4.90;0.85;;;20.00;34.70;;;;;;5015149;28;20089;-65
2021/05/25 12:17:53;;;;;;;2.83;0.95;;;19.90;34.20;;;;;;5014926;28;20029;-66
2021/05/25 12:20:22;;;;;;;5.55;1.20;;;19.90;34.60;;;;;;5013822;28;20456;-66
2021/05/25 12:22:54;;;;;;;4.13;1.23;;;19.80;34.90;;;;;;5015123;28;20044;-66
2021/05/25 12:25:27;;;;;;;5.95;1.05;;;19.80;35.20;;;;;;5015151;28;20030;-65
2021/05/25 12:28:03;;;;;;;5.47;1.30;;;19.80;35.40;;;;;;5014979;28;20083;-66
2021/05/25 12:30:29;;;;;;;5.60;1.13;;;19.80;35.50;;;;;;5015041;28;20049;-66
2021/05/25 12:32:55;;;;;;;2.25;1.00;;;19.80;35.70;;;;;;5014654;28;20108;-66
2021/05/25 12:35:28;;;;;;;2.35;0.90;;;19.80;35.90;;;;;;5014936;28;20029;-66
2021/05/25 12:38:03;;;;;;;3.70;0.98;;;19.80;36.00;;;;;;5014861;28;20380;-65
2021/05/25 12:40:29;;;;;;;1.33;0.77;;;19.70;35.80;;;;;;5014774;28;20026;-66
2021/05/25 12:42:55;;;;;;;7.97;1.55;;;19.60;36.00;;;;;;5014726;28;20484;-65
2021/05/25 12:45:25;;;;;;;6.53;1.15;;;19.60;36.50;;;;;;5014669;28;20111;-65
2021/05/25 12:47:56;;;;;;;3.63;0.90;;;19.50;36.60;;;;;;5016221;28;20033;-65
2021/05/25 12:50:29;;;;;;;4.50;1.00;;;19.40;36.80;;;;;;5034218;28;20017;-65
2021/05/25 12:53:01;;;;;;;4.90;0.73;;;19.40;37.60;;;;;;5034102;28;20076;-66
2021/05/25 12:55:27;;;;;;;1.75;0.60;;;19.40;37.40;;;;;;5033896;28;20026;-65